Highbridge, Wisconsin
Current Conditions -  °F | °C
As of 1:53 PM on Friday 19 Dec 2014 (Local Time) from KASX Reporting Station
Overcast Overcast  
Wind Chill: 19°   Ceiling: 1300
Heat Index: 25°   Visibility: 10mi
Dew Point: 20°   Wind: 5mph
Humidity: 81%   Direction: 200°SSW
Pressure: 30.24"   Gusts: NA
Location:  46.3834°N, 90.7366°W
Report Text: KASX 191953Z AUTO 20004KT 10SM OVC013 M04/M07 A3024 RMK AO2 SLP254 T10391067
Loading
Personal Weather Stations






























Interactive Weather Map New forecast layout! Learn more

10-Day Weather Forecast

Advertisements
Track Severe Weather on mobile